Time;durP1;ratioP1;P1;durP2;ratioP2;P2;SDS_P1;SDS_P2;PMS_P1;PMS_P2;Temp;Humidity;BMP_temperature;BMP_pressure;BME280_temperature;BME280_humidity;BME280_pressure;Samples;Min_cycle;Max_cycle;Signal;HPM_P1;HPM_P2
2022/04/07 00:00:01;;;;;;;11.50;8.40;;;;;;;8.39;75.18;98745.38;84685;1330;25498;-83
2022/04/07 00:02:31;;;;;;;10.90;8.10;;;;;;;8.35;75.21;98740.35;84698;1332;22598;-77
2022/04/07 00:04:41;;;;;;;11.90;8.50;;;;;;;8.32;75.08;98738.09;84710;1328;22809;-76
2022/04/07 00:06:50;;;;;;;12.30;8.00;;;;;;;8.28;75.19;98731.35;84675;1332;22674;-77
2022/04/07 00:09:03;;;;;;;11.20;7.90;;;;;;;8.25;75.24;98725.41;84672;1330;24257;-77
2022/04/07 00:11:13;;;;;;;9.70;7.60;;;;;;;8.25;75.31;98728.55;84676;1331;22705;-76
2022/04/07 00:13:25;;;;;;;11.60;8.00;;;;;;;8.24;75.28;98726.88;84686;1329;25423;-83
2022/04/07 00:15:34;;;;;;;9.70;8.00;;;;;;;8.25;75.44;98720.91;84673;1332;24813;-84
2022/04/07 00:17:43;;;;;;;12.40;7.80;;;;;;;8.27;75.39;98724.98;84682;1329;22620;-77
2022/04/07 00:19:55;;;;;;;9.60;8.30;;;;;;;8.26;75.29;98722.94;84541;1334;22780;-77
2022/04/07 00:22:05;;;;;;;11.60;8.10;;;;;;;8.26;75.34;98720.14;84682;1332;22715;-75
2022/04/07 00:24:17;;;;;;;9.80;7.40;;;;;;;8.25;75.33;98716.17;84692;1332;25925;-76
2022/04/07 00:26:26;;;;;;;13.20;8.40;;;;;;;8.24;75.31;98712.95;84683;1331;22636;-75
2022/04/07 00:28:39;;;;;;;10.30;7.00;;;;;;;8.23;75.21;98712.17;84670;1330;22943;-84
2022/04/07 00:30:49;;;;;;;10.50;7.30;;;;;;;8.20;75.21;98709.02;84678;1330;25438;-83
2022/04/07 00:32:58;;;;;;;10.60;7.50;;;;;;;8.17;75.19;98703.80;84671;1325;22868;-76
2022/04/07 00:35:09;;;;;;;10.10;6.80;;;;;;;8.16;75.22;98702.14;84673;1329;25265;-76
2022/04/07 00:37:22;;;;;;;10.30;7.70;;;;;;;8.14;75.20;98702.05;84700;1331;22723;-77
2022/04/07 00:39:31;;;;;;;10.30;7.10;;;;;;;8.13;75.18;98697.06;84673;1330;23066;-76
2022/04/07 00:41:40;;;;;;;10.50;7.80;;;;;;;8.13;75.26;98699.35;84678;1329;22587;-77
2022/04/07 00:43:51;;;;;;;10.00;6.70;;;;;;;8.12;75.21;98695.05;84695;1330;24358;-84
2022/04/07 00:46:01;;;;;;;10.50;6.70;;;;;;;8.11;75.24;98689.55;84703;1329;22583;-84
2022/04/07 00:48:14;;;;;;;9.70;7.10;;;;;;;8.09;75.18;98690.02;84696;1331;25439;-85
2022/04/07 00:50:24;;;;;;;9.10;6.80;;;;;;;8.07;75.25;98684.39;84656;1329;22804;-86
2022/04/07 00:52:33;;;;;;;11.50;7.10;;;;;;;8.05;75.26;98685.36;84695;1331;24304;-85
2022/04/07 00:54:45;;;;;;;9.30;6.90;;;;;;;8.03;75.23;98682.70;84621;1333;24302;-84
2022/04/07 00:56:54;;;;;;;9.10;7.60;;;;;;;8.01;75.22;98678.81;84676;1329;22913;-84
2022/04/07 00:59:05;;;;;;;10.30;7.00;;;;;;;7.99;75.26;98677.52;84708;1330;22740;-84
2022/04/07 01:01:14;;;;;;;9.40;6.70;;;;;;;7.99;75.38;98673.52;84692;1330;25294;-84
2022/04/07 01:03:24;;;;;;;10.50;7.40;;;;;;;8.00;75.34;98674.17;84698;1329;22612;-83
2022/04/07 01:05:33;;;;;;;10.00;6.60;;;;;;;8.00;75.35;98671.39;84689;1329;22575;-83
2022/04/07 01:07:46;;;;;;;9.60;6.60;;;;;;;8.01;75.47;98673.04;84671;1321;22548;-84
2022/04/07 01:09:55;;;;;;;10.00;6.70;;;;;;;8.02;75.45;98669.35;84702;1329;22590;-84
2022/04/07 01:12:05;;;;;;;10.00;6.70;;;;;;;8.02;75.32;98668.70;84688;1331;24091;-83
2022/04/07 01:14:15;;;;;;;9.40;7.00;;;;;;;8.00;75.37;98666.85;83993;1329;1016502;-83
2022/04/07 01:16:30;;;;;;;9.40;6.20;;;;;;;8.01;75.34;98660.39;84717;1328;22587;-84
2022/04/07 01:18:44;;;;;;;9.50;6.20;;;;;;;8.03;75.31;98662.40;84623;1333;24274;-82
2022/04/07 01:20:53;;;;;;;9.70;6.90;;;;;;;8.03;75.29;98658.05;84691;1330;22577;-84
2022/04/07 01:23:02;;;;;;;11.40;7.00;;;;;;;8.03;75.33;98656.28;84591;1331;25959;-77
2022/04/07 01:25:14;;;;;;;10.30;5.90;;;;;;;8.04;75.29;98652.79;84670;1332;24241;-77
2022/04/07 01:27:24;;;;;;;10.50;6.40;;;;;;;8.04;75.28;98652.45;84607;1332;22595;-77
2022/04/07 01:29:38;;;;;;;7.90;6.20;;;;;;;8.06;75.39;98651.45;84670;1329;22591;-77
2022/04/07 01:31:46;;;;;;;10.30;6.90;;;;;;;8.09;75.43;98650.57;84661;1329;22729;-77
2022/04/07 01:33:56;;;;;;;9.40;6.90;;;;;;;8.10;75.40;98651.55;84697;1325;22669;-76
2022/04/07 01:36:06;;;;;;;8.50;6.40;;;;;;;8.11;75.25;98653.09;84550;1335;22589;-76
2022/04/07 01:38:19;;;;;;;8.10;6.50;;;;;;;8.10;75.22;98652.98;84690;1330;23901;-77
2022/04/07 01:40:35;;;;;;;9.10;7.20;;;;;;;8.08;75.14;98650.45;84675;1329;25298;-77
2022/04/07 01:42:46;;;;;;;9.00;6.90;;;;;;;8.09;75.30;98647.98;84663;1330;26508;-77
2022/04/07 01:44:55;;;;;;;8.50;6.50;;;;;;;8.10;75.23;98647.05;84701;1330;22622;-78
2022/04/07 01:47:05;;;;;;;9.50;5.90;;;;;;;8.12;75.24;98647.98;84669;1330;24173;-76
2022/04/07 01:49:14;;;;;;;9.40;6.30;;;;;;;8.14;75.24;98648.23;84659;1331;23958;-76
2022/04/07 01:51:24;;;;;;;11.20;6.40;;;;;;;8.16;75.24;98648.46;84692;1329;23026;-76
2022/04/07 01:53:39;;;;;;;8.50;7.00;;;;;;;8.19;75.13;98641.88;84695;1324;24216;-84
2022/04/07 01:55:48;;;;;;;8.10;6.10;;;;;;;8.21;75.10;98642.62;84556;1334;24449;-83
2022/04/07 01:58:01;;;;;;;8.80;6.30;;;;;;;8.22;74.92;98641.86;84689;1330;22584;-77
2022/04/07 02:00:13;;;;;;;10.20;5.70;;;;;;;8.22;74.98;98642.54;84670;1330;22668;-75
2022/04/07 02:02:23;;;;;;;9.80;6.20;;;;;;;8.20;75.00;98640.23;84615;1330;22640;-83
2022/04/07 02:04:35;;;;;;;8.10;5.90;;;;;;;8.19;74.90;98638.73;84686;1330;23811;-84
2022/04/07 02:06:44;;;;;;;9.10;6.70;;;;;;;8.18;74.91;98637.05;84680;1331;22546;-84
2022/04/07 02:08:53;;;;;;;10.20;5.80;;;;;;;8.17;74.85;98634.48;84686;1327;22692;-76
2022/04/07 02:11:02;;;;;;;9.30;6.40;;;;;;;8.18;74.93;98633.41;84666;1332;22676;-77
2022/04/07 02:13:14;;;;;;;8.10;6.00;;;;;;;8.19;75.03;98631.08;84734;1331;22586;-83
2022/04/07 02:15:26;;;;;;;9.80;6.70;;;;;;;8.20;75.13;98630.35;84661;1321;22786;-82
2022/04/07 02:17:35;;;;;;;7.70;6.10;;;;;;;8.20;75.12;98632.21;84710;1330;22898;-83
2022/04/07 02:19:47;;;;;;;8.60;6.00;;;;;;;8.22;75.18;98629.48;84675;1329;22604;-83
2022/04/07 02:21:57;;;;;;;8.40;6.20;;;;;;;8.22;75.06;98629.86;84654;1321;22709;-83
2022/04/07 02:24:08;;;;;;;11.10;6.10;;;;;;;8.21;75.08;98629.20;84643;1332;22615;-76
2022/04/07 02:26:18;;;;;;;8.70;5.90;;;;;;;8.21;75.07;98628.38;84671;1330;22646;-76
2022/04/07 02:28:32;;;;;;;11.50;6.70;;;;;;;8.19;74.95;98622.42;84500;1332;22594;-76
2022/04/07 02:30:41;;;;;;;11.20;6.10;;;;;;;8.17;75.05;98621.80;84681;1331;22607;-76
2022/04/07 02:32:51;;;;;;;8.90;5.80;;;;;;;8.17;75.02;98615.06;84656;1330;25307;-77
2022/04/07 02:34:59;;;;;;;9.60;6.90;;;;;;;8.15;74.96;98616.23;84685;1329;22586;-76
2022/04/07 02:37:09;;;;;;;11.10;6.40;;;;;;;8.14;75.19;98614.02;84670;1327;22600;-77
2022/04/07 02:39:19;;;;;;;10.30;6.30;;;;;;;8.13;75.20;98610.09;84686;1331;22845;-83
2022/04/07 02:41:31;;;;;;;8.50;6.50;;;;;;;8.12;75.26;98601.80;84642;1329;26015;-82
2022/04/07 02:43:43;;;;;;;8.30;6.20;;;;;;;8.10;75.25;98600.14;84668;1329;22607;-77
2022/04/07 02:45:53;;;;;;;9.10;6.00;;;;;;;8.09;75.23;98597.28;84690;1329;22651;-77
2022/04/07 02:48:02;;;;;;;9.00;6.90;;;;;;;8.07;75.32;98594.45;84721;1329;25946;-77
2022/04/07 02:50:12;;;;;;;9.00;6.40;;;;;;;8.05;75.31;98598.04;84675;1329;22723;-77
2022/04/07 02:52:21;;;;;;;8.30;6.00;;;;;;;8.03;75.38;98594.48;84707;1331;24238;-82
2022/04/07 02:54:34;;;;;;;10.90;6.20;;;;;;;8.03;75.40;98591.36;84601;1331;22580;-82
2022/04/07 02:56:43;;;;;;;7.80;6.50;;;;;;;8.02;75.56;98584.25;84696;1330;23896;-82
2022/04/07 02:58:53;;;;;;;9.90;7.10;;;;;;;8.02;75.46;98581.84;84675;1329;22585;-76
2022/04/07 03:01:06;;;;;;;9.00;6.70;;;;;;;8.01;75.54;98581.04;84686;1327;22591;-77
2022/04/07 03:03:15;;;;;;;8.80;6.60;;;;;;;7.99;75.53;98573.66;84582;1330;23117;-83
2022/04/07 03:05:25;;;;;;;9.60;6.90;;;;;;;7.98;75.52;98569.73;84642;1330;22690;-83
2022/04/07 03:07:39;;;;;;;9.70;6.60;;;;;;;7.97;75.49;98568.25;84592;1330;22785;-76
2022/04/07 03:09:48;;;;;;;10.00;6.80;;;;;;;7.94;75.60;98571.52;84335;1327;361934;-77
2022/04/07 03:11:58;;;;;;;8.80;5.40;;;;;;;7.93;75.56;98571.41;84616;1329;25263;-77
2022/04/07 03:14:08;;;;;;;9.40;5.70;;;;;;;7.90;75.53;98570.55;84630;1329;22735;-83
2022/04/07 03:16:21;;;;;;;9.00;6.70;;;;;;;7.89;75.77;98571.11;84628;1329;22642;-82
2022/04/07 03:18:30;;;;;;;15.10;7.60;;;;;;;7.91;75.97;98573.61;84665;1329;24239;-77
2022/04/07 03:20:40;;;;;;;10.00;7.70;;;;;;;7.92;75.76;98571.65;84625;1329;22713;-76
2022/04/07 03:22:50;;;;;;;16.50;7.70;;;;;;;7.90;75.84;98574.71;84625;1330;22593;-82
2022/04/07 03:24:59;;;;;;;13.20;6.70;;;;;;;7.89;75.86;98574.23;84606;1330;25337;-81
2022/04/07 03:27:09;;;;;;;12.30;7.10;;;;;;;7.86;75.95;98573.87;84582;1332;22864;-82
2022/04/07 03:29:19;;;;;;;10.00;7.20;;;;;;;7.84;75.88;98571.06;84635;1330;22582;-81
2022/04/07 03:31:29;;;;;;;9.30;7.60;;;;;;;7.82;75.98;98570.48;84620;1330;25297;-82
2022/04/07 03:33:38;;;;;;;10.70;7.10;;;;;;;7.83;76.11;98569.39;84607;1327;22599;-82
2022/04/07 03:35:47;;;;;;;11.10;6.90;;;;;;;7.82;76.17;98567.34;84633;1330;22646;-83
2022/04/07 03:37:57;;;;;;;12.70;7.40;;;;;;;7.81;76.19;98570.16;84613;1328;24260;-77
2022/04/07 03:40:08;;;;;;;8.00;6.10;;;;;;;7.83;76.09;98565.40;84605;1330;22592;-76
2022/04/07 03:42:18;;;;;;;9.20;6.70;;;;;;;7.83;76.15;98562.80;84656;1329;22602;-76
2022/04/07 03:44:27;;;;;;;9.10;6.60;;;;;;;7.80;76.10;98565.04;84637;1329;24367;-76
2022/04/07 03:46:35;;;;;;;8.60;7.20;;;;;;;7.74;76.14;98565.70;84622;1329;22623;-76
2022/04/07 03:48:45;;;;;;;9.90;8.00;;;;;;;7.69;75.95;98564.94;84648;1329;22588;-76
2022/04/07 03:50:58;;;;;;;9.30;7.30;;;;;;;7.63;75.96;98562.29;84586;1327;22748;-77
2022/04/07 03:53:08;;;;;;;14.10;7.50;;;;;;;7.59;76.17;98561.31;84625;1330;22596;-77
2022/04/07 03:55:17;;;;;;;14.40;7.60;;;;;;;7.55;76.00;98563.80;84542;1333;22597;-76
2022/04/07 03:57:27;;;;;;;10.80;7.30;;;;;;;7.51;76.26;98565.39;84596;1328;22655;-77
2022/04/07 03:59:39;;;;;;;10.20;7.20;;;;;;;7.46;75.99;98568.77;84600;1330;22588;-82
2022/04/07 04:01:50;;;;;;;9.20;6.10;;;;;;;7.42;76.31;98569.69;84635;1330;22582;-84
2022/04/07 04:04:01;;;;;;;9.90;7.30;;;;;;;7.43;76.58;98566.72;84660;1328;22596;-83
2022/04/07 04:06:13;;;;;;;10.20;7.50;;;;;;;7.44;76.61;98568.54;84671;1331;22861;-82
2022/04/07 04:08:23;;;;;;;10.60;7.50;;;;;;;7.45;76.66;98574.08;84677;1330;22625;-83
2022/04/07 04:10:32;;;;;;;11.90;8.10;;;;;;;7.43;76.70;98571.02;84681;1330;25441;-83
2022/04/07 04:12:45;;;;;;;12.30;7.00;;;;;;;7.42;76.75;98576.11;84689;1330;22607;-82
2022/04/07 04:14:55;;;;;;;12.00;8.00;;;;;;;7.40;76.62;98571.89;84575;1328;22612;-82
2022/04/07 04:17:05;;;;;;;12.10;9.30;;;;;;;7.39;76.86;98571.23;84664;1329;22620;-81
2022/04/07 04:19:15;;;;;;;12.60;7.80;;;;;;;7.39;76.87;98571.75;84653;1330;22578;-77
2022/04/07 04:21:27;;;;;;;12.60;7.90;;;;;;;7.40;76.86;98576.75;84674;1330;22632;-76
2022/04/07 04:23:38;;;;;;;13.10;7.40;;;;;;;7.41;76.88;98573.08;84661;1330;22627;-76
2022/04/07 04:25:47;;;;;;;10.80;6.60;;;;;;;7.43;77.02;98576.06;84696;1330;23959;-76
2022/04/07 04:28:00;;;;;;;11.60;7.50;;;;;;;7.46;77.00;98578.18;84714;1329;22729;-77
2022/04/07 04:30:13;;;;;;;11.60;7.80;;;;;;;7.49;77.06;98579.55;84706;1330;22605;-76
2022/04/07 04:32:22;;;;;;;11.50;7.50;;;;;;;7.55;77.30;98582.41;84528;1331;23033;-76
2022/04/07 04:34:34;;;;;;;11.20;8.60;;;;;;;7.58;77.13;98583.92;84684;1330;22715;-76
2022/04/07 04:36:44;;;;;;;10.40;7.90;;;;;;;7.62;77.01;98583.01;84542;1333;25314;-75
2022/04/07 04:38:54;;;;;;;11.80;7.90;;;;;;;7.67;77.13;98580.15;84545;1333;24910;-81
2022/04/07 04:41:04;;;;;;;12.30;7.80;;;;;;;7.72;77.14;98582.27;84687;1327;22593;-81
2022/04/07 04:43:17;;;;;;;10.40;7.80;;;;;;;7.79;77.03;98582.29;84582;1329;24245;-81
2022/04/07 04:45:28;;;;;;;14.00;7.40;;;;;;;7.84;76.92;98584.45;84669;1330;23035;-81
2022/04/07 04:47:38;;;;;;;14.20;7.30;;;;;;;7.89;76.81;98586.90;84694;1330;22594;-80
2022/04/07 04:49:48;;;;;;;10.90;7.40;;;;;;;8.00;76.96;98589.94;84574;1333;24925;-82
2022/04/07 04:52:02;;;;;;;12.10;8.30;;;;;;;8.12;76.81;98589.79;84659;1328;22619;-80
2022/04/07 04:54:13;;;;;;;13.40;8.30;;;;;;;8.29;76.90;98582.43;84581;1332;22832;-81
2022/04/07 04:56:22;;;;;;;11.60;8.30;;;;;;;8.46;76.67;98579.38;84662;1328;22626;-77
2022/04/07 04:58:32;;;;;;;15.80;8.90;;;;;;;8.60;76.22;98578.39;84676;1329;22594;-75
2022/04/07 05:00:45;;;;;;;12.80;9.20;;;;;;;8.64;75.74;98576.77;84650;1327;22695;-75
2022/04/07 05:02:54;;;;;;;11.70;8.90;;;;;;;8.65;75.36;98572.14;84562;1331;22592;-81
2022/04/07 05:05:05;;;;;;;15.50;9.70;;;;;;;8.66;75.18;98568.84;84615;1330;22593;-81
2022/04/07 05:07:17;;;;;;;12.10;8.30;;;;;;;8.69;75.15;98573.48;84572;1327;23118;-75
2022/04/07 05:09:26;;;;;;;11.10;8.20;;;;;;;8.74;75.08;98571.10;84600;1330;22590;-75
2022/04/07 05:11:35;;;;;;;12.70;9.00;;;;;;;8.86;75.05;98570.41;84618;1331;22670;-75
2022/04/07 05:13:46;;;;;;;12.00;7.90;;;;;;;9.10;75.33;98569.29;84600;1333;22826;-75
2022/04/07 05:15:55;;;;;;;13.90;8.00;;;;;;;9.45;75.68;98566.29;84579;1333;25489;-75
2022/04/07 05:18:05;;;;;;;11.80;8.20;;;;;;;9.78;75.37;98565.77;84607;1329;22790;-81
2022/04/07 05:20:15;;;;;;;12.40;7.80;;;;;;;10.09;74.20;98563.45;84612;1332;22782;-80
2022/04/07 05:22:24;;;;;;;13.10;9.60;;;;;;;10.54;74.50;98559.13;84628;1329;23937;-80
2022/04/07 05:24:33;;;;;;;14.70;8.50;;;;;;;11.02;73.15;98559.17;84604;1330;22625;-79
2022/04/07 05:26:42;;;;;;;10.70;7.90;;;;;;;11.49;72.61;98553.63;84612;1329;25153;-79
2022/04/07 05:28:51;;;;;;;10.90;8.60;;;;;;;12.01;71.71;98551.46;84652;1330;25485;-76
2022/04/07 05:31:03;;;;;;;13.80;9.80;;;;;;;12.38;70.18;98555.42;84602;1330;22832;-77
2022/04/07 05:33:13;;;;;;;10.60;8.30;;;;;;;12.79;69.40;98549.34;84618;1329;22635;-79
2022/04/07 05:35:21;;;;;;;;;;;;;;;13.06;67.69;98542.86;84671;1328;22668;-78
2022/04/07 05:37:33;;;;;;;11.50;7.50;;;;;;;13.17;66.64;98543.27;84590;1329;22622;-80
2022/04/07 05:39:42;;;;;;;11.90;8.40;;;;;;;13.14;65.25;98542.92;84625;1333;22590;-80
2022/04/07 05:41:54;;;;;;;10.80;7.90;;;;;;;13.06;64.79;98542.89;84609;1330;26478;-80
2022/04/07 05:44:03;;;;;;;10.60;8.10;;;;;;;13.11;64.69;98553.15;84629;1330;22600;-75
2022/04/07 05:46:12;;;;;;;17.10;9.00;;;;;;;13.32;64.81;98549.07;84618;1330;22584;-75
2022/04/07 05:48:22;;;;;;;11.60;7.40;;;;;;;13.60;63.30;98546.95;84661;1327;22865;-76
2022/04/07 05:50:34;;;;;;;13.40;7.30;;;;;;;13.79;63.27;98547.17;84620;1333;23977;-75
2022/04/07 05:52:45;;;;;;;10.40;7.50;;;;;;;14.08;63.13;98539.16;84593;1329;24272;-79
2022/04/07 05:54:55;;;;;;;12.60;7.00;;;;;;;14.33;62.45;98537.08;84638;1329;22848;-81
2022/04/07 05:57:05;;;;;;;12.00;7.00;;;;;;;14.37;61.18;98531.34;84609;1330;22591;-81
2022/04/07 05:59:14;;;;;;;;;;;;;;;14.29;60.44;98529.27;84624;1329;22578;-80
2022/04/07 06:01:24;;;;;;;10.00;6.50;;;;;;;14.21;60.75;98525.69;84608;1329;22584;-81
2022/04/07 06:03:37;;;;;;;7.70;5.80;;;;;;;14.29;60.34;98522.77;84447;1333;25433;-81
2022/04/07 06:05:52;;;;;;;7.50;6.50;;;;;;;14.53;60.31;98518.97;84615;1329;25481;-80
2022/04/07 06:08:05;;;;;;;8.70;6.20;;;;;;;15.02;60.43;98518.52;84648;1329;22613;-78
2022/04/07 06:10:15;;;;;;;8.10;6.10;;;;;;;15.60;59.03;98520.14;84549;1331;22611;-81
2022/04/07 06:12:24;;;;;;;8.30;4.90;;;;;;;16.13;57.72;98515.23;84610;1329;24247;-74
2022/04/07 06:14:34;;;;;;;10.70;6.10;;;;;;;16.49;56.87;98512.52;84587;1330;24175;-76
2022/04/07 06:16:45;;;;;;;8.70;5.70;;;;;;;16.82;55.68;98506.45;84632;1328;22748;-74
2022/04/07 06:18:54;;;;;;;10.90;5.10;;;;;;;17.17;54.59;98508.27;84598;1330;25348;-75
2022/04/07 06:21:07;;;;;;;11.50;5.40;;;;;;;17.71;53.71;98504.86;84554;1330;22652;-75
2022/04/07 06:23:17;;;;;;;9.50;5.60;;;;;;;18.34;52.53;98506.61;84590;1331;22610;-75
2022/04/07 06:25:27;;;;;;;10.10;5.50;;;;;;;18.88;51.07;98507.48;84552;1332;22684;-75
2022/04/07 06:27:40;;;;;;;7.90;4.90;;;;;;;19.17;49.76;98505.33;84531;1331;22559;-81
2022/04/07 06:29:57;;;;;;;8.00;5.70;;;;;;;19.31;48.53;98506.29;84610;1332;23054;-76
2022/04/07 06:32:07;;;;;;;6.10;4.70;;;;;;;19.34;48.27;98500.80;84559;1332;22602;-75
2022/04/07 06:34:16;;;;;;;6.80;5.10;;;;;;;19.60;46.92;98502.70;84507;1332;24149;-74
2022/04/07 06:36:26;;;;;;;7.70;4.80;;;;;;;19.85;46.95;98491.46;84601;1329;22585;-74
2022/04/07 06:38:35;;;;;;;7.50;5.00;;;;;;;20.34;46.82;98488.11;84637;1330;22558;-82
2022/04/07 06:40:44;;;;;;;6.00;4.70;;;;;;;21.06;45.70;98486.78;84598;1330;22597;-81
2022/04/07 06:42:55;;;;;;;5.80;4.90;;;;;;;21.82;44.68;98484.15;84592;1330;24244;-75
2022/04/07 06:45:05;;;;;;;10.80;5.80;;;;;;;22.49;42.36;98480.35;84591;1330;22662;-76
2022/04/07 06:47:16;;;;;;;8.20;4.60;;;;;;;22.90;41.47;98480.70;84547;1332;22614;-78
2022/04/07 06:49:25;;;;;;;6.50;4.40;;;;;;;23.11;39.29;98478.81;84618;1330;25295;-81
2022/04/07 06:51:34;;;;;;;8.30;5.30;;;;;;;23.11;39.50;98479.18;84607;1329;22591;-81
2022/04/07 06:53:46;;;;;;;6.40;4.90;;;;;;;23.36;39.33;98477.95;84608;1330;24245;-75
2022/04/07 06:55:58;;;;;;;5.90;4.90;;;;;;;23.63;38.39;98476.56;84606;1330;24185;-74
2022/04/07 06:58:10;;;;;;;6.40;4.90;;;;;;;24.04;38.05;98476.39;84596;1327;22693;-81
2022/04/07 07:00:20;;;;;;;6.50;4.90;;;;;;;24.33;36.76;98467.41;84602;1330;23969;-81
2022/04/07 07:02:30;;;;;;;6.00;4.60;;;;;;;24.73;36.38;98467.79;84601;1333;22672;-75
2022/04/07 07:04:42;;;;;;;6.00;5.00;;;;;;;25.21;36.03;98466.40;84610;1330;22602;-74
2022/04/07 07:06:51;;;;;;;6.50;4.80;;;;;;;25.86;35.01;98472.33;84573;1330;24093;-75
2022/04/07 07:09:01;;;;;;;6.20;4.30;;;;;;;26.35;34.27;98473.55;84541;1329;22827;-74
2022/04/07 07:11:11;;;;;;;5.70;4.40;;;;;;;26.65;32.09;98472.34;84583;1333;22748;-75
2022/04/07 07:13:24;;;;;;;6.90;4.40;;;;;;;26.56;31.82;98471.68;84561;1328;22586;-74
2022/04/07 07:15:33;;;;;;;7.60;4.70;;;;;;;26.42;31.08;98474.56;84548;1335;22812;-74
2022/04/07 07:17:43;;;;;;;3.70;3.40;;;;;;;25.98;31.53;98478.83;84545;1331;22608;-75
2022/04/07 07:19:55;;;;;;;5.10;3.80;;;;;;;25.78;31.76;98478.31;84562;1334;24213;-74
2022/04/07 07:22:05;;;;;;;6.90;4.20;;;;;;;25.74;31.76;98474.13;84556;1331;22711;-74
2022/04/07 07:24:15;;;;;;;5.30;3.80;;;;;;;25.75;31.44;98476.58;84572;1332;22644;-74
2022/04/07 07:26:24;;;;;;;5.70;4.00;;;;;;;25.39;31.11;98468.76;84573;1331;24240;-74
2022/04/07 07:28:33;;;;;;;7.30;4.20;;;;;;;24.86;31.41;98472.89;84575;1332;22925;-79
2022/04/07 07:30:46;;;;;;;6.40;4.20;;;;;;;24.43;32.32;98473.64;84570;1328;22588;-82
2022/04/07 07:32:55;;;;;;;6.90;4.30;;;;;;;24.14;32.89;98469.70;84562;1331;23062;-80
2022/04/07 07:35:05;;;;;;;5.90;4.20;;;;;;;23.78;32.62;98474.64;84566;1332;22867;-82
2022/04/07 07:37:14;;;;;;;7.00;3.80;;;;;;;23.40;33.19;98468.30;84566;1331;22801;-76
2022/04/07 07:39:27;;;;;;;5.90;5.00;;;;;;;23.27;33.57;98467.35;84574;1329;24021;-74
2022/04/07 07:41:38;;;;;;;5.90;3.60;;;;;;;23.27;33.80;98465.58;84588;1330;23989;-73
2022/04/07 07:43:47;;;;;;;6.50;4.00;;;;;;;23.06;33.02;98465.20;84596;1330;22590;-82
2022/04/07 07:45:59;;;;;;;5.80;4.30;;;;;;;22.63;33.16;98464.46;84603;1332;24277;-82
2022/04/07 07:48:09;;;;;;;6.40;4.30;;;;;;;22.29;33.96;98462.77;84629;1333;22615;-83
2022/04/07 07:50:18;;;;;;;5.60;4.10;;;;;;;22.07;34.61;98458.41;84612;1329;23944;-83
2022/04/07 07:52:27;;;;;;;5.20;3.90;;;;;;;22.06;35.26;98458.73;84646;1329;23931;-75
2022/04/07 07:54:39;;;;;;;4.70;3.70;;;;;;;22.36;35.47;98460.25;84604;1329;25268;-79
2022/04/07 07:56:49;;;;;;;9.30;4.20;;;;;;;22.69;35.18;98462.70;84590;1326;23074;-82
2022/04/07 07:58:59;;;;;;;6.30;4.10;;;;;;;22.70;34.87;98466.33;84618;1333;22639;-83
2022/04/07 08:01:08;;;;;;;8.40;3.70;;;;;;;22.73;34.69;98461.36;84550;1332;22575;-75
2022/04/07 08:03:18;;;;;;;5.20;3.50;;;;;;;22.86;34.61;98463.20;84551;1330;25441;-81
2022/04/07 08:05:31;;;;;;;6.10;3.30;;;;;;;23.18;34.33;98463.98;84659;1330;22752;-82
2022/04/07 08:07:43;;;;;;;5.30;3.20;;;;;;;23.75;34.17;98472.15;84555;1330;24364;-74
2022/04/07 08:09:56;;;;;;;5.90;3.40;;;;;;;24.13;32.77;98468.27;84647;1327;22603;-75
2022/04/07 08:12:06;;;;;;;6.40;3.50;;;;;;;24.43;32.02;98465.96;84650;1330;22856;-75
2022/04/07 08:14:14;;;;;;;;;;;;;;;24.65;32.17;98463.70;84684;1330;22570;-73
2022/04/07 08:16:23;;;;;;;5.30;3.60;;;;;;;25.03;31.50;98461.52;84667;1330;25434;-74
2022/04/07 08:18:31;;;;;;;;;;;;;;;25.32;30.43;98460.48;84691;1329;22583;-71
2022/04/07 08:20:41;;;;;;;5.30;2.90;;;;;;;25.47;30.79;98456.64;84673;1330;23056;-82
2022/04/07 08:22:52;;;;;;;4.60;3.00;;;;;;;25.86;30.71;98459.21;84691;1330;22592;-82
2022/04/07 08:25:04;;;;;;;3.90;3.50;;;;;;;26.27;30.42;98453.71;84685;1330;22711;-82
2022/04/07 08:27:15;;;;;;;5.20;3.80;;;;;;;26.74;29.32;98451.77;84692;1329;22589;-72
2022/04/07 08:29:22;;;;;;;;;;;;;;;26.88;28.37;98450.71;84667;1330;24354;-73
2022/04/07 08:31:31;;;;;;;6.40;4.20;;;;;;;26.92;28.80;98454.42;84653;1330;22596;-73
2022/04/07 08:33:40;;;;;;;7.00;4.50;;;;;;;27.13;28.27;98455.14;84661;1329;24372;-74
2022/04/07 08:35:51;;;;;;;5.90;3.50;;;;;;;27.31;27.95;98455.85;84668;1330;22840;-74
2022/04/07 08:38:00;;;;;;;7.70;4.60;;;;;;;27.20;27.21;98454.33;84691;1329;22606;-81
2022/04/07 08:40:13;;;;;;;8.30;4.00;;;;;;;26.72;26.75;98449.80;84646;1325;22594;-82
2022/04/07 08:42:22;;;;;;;6.50;3.80;;;;;;;26.18;28.02;98454.12;84677;1329;22587;-75
2022/04/07 08:44:32;;;;;;;8.50;3.50;;;;;;;26.00;28.37;98449.60;84661;1328;22603;-74
2022/04/07 08:46:42;;;;;;;4.80;3.60;;;;;;;25.96;28.41;98444.56;84652;1328;25327;-75
2022/04/07 08:48:52;;;;;;;;;;;;;;;25.94;28.08;98446.48;84689;1329;22586;-73
2022/04/07 08:51:05;;;;;;;5.50;3.40;;;;;;;26.06;28.30;98442.93;84668;1330;24244;-75
2022/04/07 08:53:19;;;;;;;4.80;4.00;;;;;;;26.37;28.27;98441.14;84692;1331;22577;-83
2022/04/07 08:55:28;;;;;;;6.30;4.40;;;;;;;26.62;28.22;98433.38;84664;1330;22633;-81
2022/04/07 08:57:37;;;;;;;4.70;3.90;;;;;;;27.09;28.63;98433.98;84671;1330;23914;-75
2022/04/07 08:59:45;;;;;;;;;;;;;;;27.77;28.21;98434.95;84661;1330;25466;-76
2022/04/07 09:02:03;;;;;;;4.30;3.90;;;;;;;28.08;26.25;98433.36;84577;1330;22807;-75
2022/04/07 09:04:16;;;;;;;6.00;3.60;;;;;;;28.40;26.88;98425.84;84665;1321;24335;-83
2022/04/07 09:06:29;;;;;;;4.70;4.00;;;;;;;28.83;26.74;98424.35;84572;1330;22606;-82
2022/04/07 09:08:40;;;;;;;7.10;4.20;;;;;;;29.20;25.76;98420.36;84679;1330;24250;-82
2022/04/07 09:10:57;;;;;;;6.80;4.50;;;;;;;29.33;25.17;98421.66;84656;1331;22576;-81
2022/04/07 09:13:11;;;;;;;5.10;4.20;;;;;;;29.04;24.93;98421.36;84539;1330;22594;-75
2022/04/07 09:15:20;;;;;;;6.20;4.80;;;;;;;28.86;25.32;98416.71;84547;1330;22595;-75
2022/04/07 09:17:30;;;;;;;6.10;4.00;;;;;;;29.02;25.36;98411.95;84554;1327;24261;-80
2022/04/07 09:19:42;;;;;;;5.00;3.90;;;;;;;29.21;25.07;98412.43;84663;1332;22591;-82
2022/04/07 09:22:08;;;;;;;7.30;4.70;;;;;;;29.40;24.48;98406.18;84653;1329;22586;-83
2022/04/07 09:24:18;;;;;;;6.30;4.10;;;;;;;29.66;24.59;98403.98;84660;1328;23956;-75
2022/04/07 09:26:26;;;;;;;7.00;4.50;;;;;;;29.92;24.26;98396.16;84660;1329;22602;-74
2022/04/07 09:28:39;;;;;;;8.80;4.40;;;;;;;30.15;23.87;98396.48;84666;1329;23039;-80
2022/04/07 09:30:53;;;;;;;5.90;4.20;;;;;;;30.11;23.64;98380.09;84530;1332;22875;-81
2022/04/07 09:33:02;;;;;;;9.20;4.40;;;;;;;29.99;23.83;98383.54;84655;1329;22617;-75
2022/04/07 09:35:12;;;;;;;6.10;3.70;;;;;;;29.81;23.71;98378.67;84678;1330;22608;-76
2022/04/07 09:37:24;;;;;;;5.90;4.20;;;;;;;29.40;23.62;98383.52;84648;1329;22598;-75
2022/04/07 09:39:36;;;;;;;4.80;4.30;;;;;;;28.97;24.04;98378.61;84663;1329;24261;-75
2022/04/07 09:41:48;;;;;;;6.30;5.00;;;;;;;28.76;24.68;98376.05;84661;1328;25368;-75
2022/04/07 09:43:59;;;;;;;6.60;4.00;;;;;;;28.56;25.09;98374.16;84631;1329;22854;-85
2022/04/07 09:46:16;;;;;;;5.20;4.70;;;;;;;28.30;24.88;98368.71;84691;1329;22620;-82
2022/04/07 09:48:32;;;;;;;4.90;4.30;;;;;;;27.77;25.23;98370.77;84713;1330;22617;-81
2022/04/07 09:51:05;;;;;;;7.00;4.80;;;;;;;27.22;25.40;98368.31;84665;1330;22605;-83
2022/04/07 09:53:15;;;;;;;4.80;3.90;;;;;;;26.55;26.03;98351.79;84683;1329;22625;-84
2022/04/07 09:55:30;;;;;;;5.30;4.00;;;;;;;26.07;26.91;98354.35;84692;1326;22609;-83
2022/04/07 09:57:39;;;;;;;4.60;3.50;;;;;;;25.69;27.71;98345.41;84688;1329;24310;-83
2022/04/07 09:59:52;;;;;;;4.80;3.90;;;;;;;25.52;28.04;98351.10;84677;1325;22586;-84
2022/04/07 10:02:06;;;;;;;5.30;4.00;;;;;;;25.21;27.75;98347.69;84530;1330;22844;-83
2022/04/07 10:04:19;;;;;;;4.30;3.40;;;;;;;24.92;28.57;98343.85;84627;1330;22731;-83
2022/04/07 10:06:28;;;;;;;8.50;4.40;;;;;;;24.69;28.80;98334.73;84687;1330;22615;-83
2022/04/07 10:08:38;;;;;;;5.50;4.20;;;;;;;24.48;29.15;98335.41;84590;1330;22674;-84
2022/04/07 10:10:49;;;;;;;4.50;4.10;;;;;;;24.28;29.26;98333.77;84682;1330;24255;-80
2022/04/07 10:13:02;;;;;;;4.60;3.80;;;;;;;24.06;29.35;98328.15;84697;1325;22590;-84
2022/04/07 10:15:12;;;;;;;5.20;3.70;;;;;;;23.68;29.28;98327.36;84656;1329;23983;-84
2022/04/07 10:17:25;;;;;;;4.30;3.50;;;;;;;23.25;29.96;98324.91;84685;1330;24286;-79